Time;durP1;ratioP1;P1;durP2;ratioP2;P2;SDS_P1;SDS_P2;PMS_P1;PMS_P2;Temp;Humidity;BMP_temperature;BMP_pressure;BME280_temperature;BME280_humidity;BME280_pressure;Samples;Min_cycle;Max_cycle;Signal;HPM_P1;HPM_P2
2022/08/14 00:02:28;;;;;;;6.65;6.35;;;;;;;18.25;54.38;100528.69;5929702;24;20027;-79
2022/08/14 00:05:46;;;;;;;8.30;7.85;;;;;;;16.94;54.55;100306.38;5937854;24;20016;-76
2022/08/14 00:08:26;;;;;;;6.80;6.50;;;;;;;18.46;54.63;100595.91;5981490;23;20724;-76
2022/08/14 00:11:36;;;;;;;6.47;6.18;;;;;;;18.02;54.75;100555.44;6102230;23;20035;-78
2022/08/14 00:14:28;;;;;;;6.10;5.80;;;;;;;19.17;54.63;100703.22;6060410;23;20030;-77
2022/08/14 00:16:58;;;;;;;6.47;6.18;;;;;;;17.28;55.34;100438.72;6074005;23;20638;-78
2022/08/14 00:20:04;;;;;;;6.32;5.93;;;;;;;17.31;56.62;100428.69;6049279;23;20551;-77
2022/08/14 00:22:38;;;;;;;6.75;6.45;;;;;;;16.23;56.58;100263.75;6081300;23;20024;-76
2022/08/14 00:25:38;;;;;;;7.40;6.97;;;;;;;15.84;56.80;100174.28;6054092;23;20010;-76
2022/08/14 00:28:32;;;;;;;6.82;6.53;;;;;;;18.60;57.38;100649.66;6079419;23;20071;-74
2022/08/14 00:31:47;;;;;;;6.30;6.00;;;;;;;17.65;57.02;100483.38;6040635;23;20015;-75
2022/08/14 00:34:27;;;;;;;6.80;6.40;;;;;;;16.79;57.37;100364.13;6111499;23;20013;-75
2022/08/14 00:37:12;;;;;;;7.05;6.70;;;;;;;20.38;57.31;100918.78;6060491;23;20545;-76
2022/08/14 00:39:43;;;;;;;5.78;5.47;;;;;;;19.93;57.82;100856.16;6061554;23;20471;-76
2022/08/14 00:42:25;;;;;;;5.80;5.50;;;;;;;20.12;58.14;100868.66;6106779;23;20025;-78
2022/08/14 00:45:11;;;;;;;5.93;5.63;;;;;;;16.42;58.23;100260.41;6063408;23;20022;-76
2022/08/14 00:47:46;;;;;;;15.48;14.65;;;;;;;20.28;59.23;100908.09;6094446;23;20204;-76
2022/08/14 00:52:58;;;;;;;10.65;10.13;;;;;;;15.68;59.50;100184.41;6046076;23;20899;-78
2022/08/14 00:55:27;;;;;;;6.90;6.50;;;;;;;17.04;59.42;100433.66;6113848;23;20010;-77
2022/08/14 01:01:19;;;;;;;5.90;5.50;;;;;;;17.10;60.20;100402.19;6093775;23;20030;-76
2022/08/14 01:04:11;;;;;;;5.53;5.25;;;;;;;20.07;60.94;100880.72;6047089;23;20038;-77
2022/08/14 01:07:06;;;;;;;5.90;5.60;;;;;;;16.35;60.74;100295.34;6085169;23;20628;-78
2022/08/14 01:09:35;;;;;;;6.78;6.38;;;;;;;15.84;60.82;100192.81;6054055;23;20018;-76
2022/08/14 01:12:11;;;;;;;6.72;6.32;;;;;;;16.04;60.57;100264.44;6079422;23;20100;-77
2022/08/14 01:15:01;;;;;;;5.80;5.50;;;;;;;19.92;60.83;100873.13;6050786;23;20010;-77
2022/08/14 01:23:49;;;;;;;5.68;5.38;;;;;;;18.32;61.40;100644.91;6083771;23;20017;-76
2022/08/14 01:26:28;;;;;;;6.40;6.10;;;;;;;17.04;63.12;100405.38;6052189;23;20444;-75
2022/08/14 01:29:08;;;;;;;6.20;5.90;;;;;;;19.11;62.07;100721.41;6059693;23;20010;-76
2022/08/14 01:31:51;;;;;;;5.70;5.40;;;;;;;16.03;62.42;100233.63;6045997;23;20076;-76
2022/08/14 01:34:35;;;;;;;7.07;6.68;;;;;;;16.16;62.90;100247.53;6084911;23;20018;-76
2022/08/14 01:37:23;;;;;;;6.88;6.55;;;;;;;18.53;63.37;100623.59;6047120;23;20409;-74
2022/08/14 01:39:54;;;;;;;7.15;6.65;;;;;;;18.13;63.65;100565.94;6083813;23;20029;-74
2022/08/14 01:45:21;;;;;;;6.35;6.05;;;;;;;17.24;63.72;100477.94;6077873;23;20171;-77
2022/08/14 01:47:56;;;;;;;5.75;5.43;;;;;;;19.05;64.32;100726.41;6046388;23;20089;-76
2022/08/14 01:50:44;;;;;;;6.43;6.13;;;;;;;18.29;65.69;100633.69;6074630;23;20036;-75
2022/08/14 01:53:12;;;;;;;6.22;5.72;;;;;;;15.74;64.67;100223.63;6010000;23;20053;-76
2022/08/14 01:55:40;;;;;;;8.52;8.10;;;;;;;19.45;65.42;100786.78;6076487;23;20352;-75
2022/08/14 01:58:22;;;;;;;6.60;6.20;;;;;;;17.62;66.80;100481.81;6056789;23;20014;-78
2022/08/14 02:01:24;;;;;;;6.80;6.20;;;;;;;18.93;67.35;100689.28;6075906;23;20021;-74
2022/08/14 02:03:55;;;;;;;5.22;5.03;;;;;;;18.19;66.57;100583.19;6053970;23;20015;-76
2022/08/14 02:06:37;;;;;;;6.63;6.22;;;;;;;18.80;66.29;100693.97;6081957;23;20093;-77
2022/08/14 02:09:12;;;;;;;6.65;6.25;;;;;;;17.24;67.29;100496.50;6041730;23;20091;-76
2022/08/14 02:11:56;;;;;;;6.00;5.70;;;;;;;17.73;68.47;100521.53;6050469;23;20107;-77
2022/08/14 02:14:26;;;;;;;6.75;6.35;;;;;;;19.03;68.40;100731.03;6056917;23;20087;-77
2022/08/14 02:17:34;;;;;;;6.15;5.85;;;;;;;16.80;68.49;100412.66;6088399;23;20511;-75
2022/08/14 02:20:07;;;;;;;5.95;5.63;;;;;;;19.35;70.22;100797.38;6045772;23;20186;-75
2022/08/14 02:22:42;;;;;;;9.18;8.70;;;;;;;16.17;69.57;100291.56;6079778;23;20451;-79
2022/08/14 02:25:14;;;;;;;6.05;5.70;;;;;;;15.23;70.06;100190.63;6051403;23;20021;-76
2022/08/14 02:27:56;;;;;;;6.38;5.97;;;;;;;18.93;70.95;100747.78;6078485;23;20016;-76
2022/08/14 02:30:48;;;;;;;5.75;5.47;;;;;;;18.42;71.02;100676.00;6052653;23;20084;-77
2022/08/14 02:33:27;;;;;;;6.43;6.03;;;;;;;19.19;71.23;100789.06;6074818;23;20022;-77
2022/08/14 02:36:05;;;;;;;5.68;5.38;;;;;;;19.16;72.64;100789.31;6053839;23;20022;-79
2022/08/14 02:39:01;;;;;;;6.00;5.70;;;;;;;19.16;73.33;100784.00;6086446;23;20127;-75
2022/08/14 02:41:28;;;;;;;6.18;5.78;;;;;;;17.81;72.79;100589.06;6070693;23;20033;-78
2022/08/14 02:44:11;;;;;;;5.95;5.55;;;;;;;19.17;72.15;100794.50;6085422;23;20351;-75
2022/08/14 02:46:43;;;;;;;22.35;21.20;;;;;;;18.76;72.71;100728.91;6041615;23;20014;-75
2022/08/14 02:49:30;;;;;;;5.70;5.40;;;;;;;18.69;73.76;100721.47;6047313;23;20037;-77
2022/08/14 02:52:00;;;;;;;5.72;5.43;;;;;;;18.34;73.59;100666.88;6043789;23;20134;-75
2022/08/14 02:54:51;;;;;;;5.38;5.18;;;;;;;17.04;73.59;100527.31;6034101;23;20533;-77
2022/08/14 02:57:21;;;;;;;6.47;6.15;;;;;;;16.25;73.60;100326.19;6008300;23;20006;-77
2022/08/14 03:00:11;;;;;;;5.90;5.60;;;;;;;18.74;74.40;100753.81;6048863;23;20032;-76
2022/08/14 03:03:05;;;;;;;5.50;5.30;;;;;;;19.12;74.61;100783.41;6032207;23;20057;-75
2022/08/14 03:05:47;;;;;;;8.15;7.45;;;;;;;14.51;74.46;100088.00;6051402;23;20029;-78
2022/08/14 03:08:30;;;;;;;6.50;6.20;;;;;;;18.72;75.88;100738.97;6045953;23;20007;-76
2022/08/14 03:11:10;;;;;;;5.90;5.60;;;;;;;17.13;75.42;100504.50;6055305;23;20102;-76
2022/08/14 03:13:50;;;;;;;5.85;5.55;;;;;;;17.63;75.50;100556.97;6021475;23;20023;-79
2022/08/14 03:16:35;;;;;;;7.45;6.85;;;;;;;16.41;75.54;100370.78;6083500;23;20038;-76
2022/08/14 03:19:07;;;;;;;6.00;5.70;;;;;;;18.89;75.62;100772.13;6050161;23;20109;-78
2022/08/14 03:21:38;;;;;;;11.85;11.23;;;;;;;15.78;75.38;100272.69;6047090;23;20069;-77
2022/08/14 03:24:10;;;;;;;7.13;6.68;;;;;;;16.03;75.47;100336.84;6030983;23;20085;-77
2022/08/14 03:27:12;;;;;;;8.48;8.00;;;;;;;15.71;76.38;100287.34;6056539;23;20026;-77
2022/08/14 03:29:53;;;;;;;5.95;5.55;;;;;;;18.27;77.69;100760.50;6023604;23;20018;-79
2022/08/14 03:32:33;;;;;;;6.32;6.03;;;;;;;17.12;77.45;100527.53;6059337;23;20625;-78
2022/08/14 03:35:13;;;;;;;6.22;5.93;;;;;;;17.76;77.90;100655.84;6028622;23;20574;-78
2022/08/14 03:41:31;;;;;;;6.65;6.35;;;;;;;15.65;78.42;100348.66;6029324;23;20026;-78
2022/08/14 03:44:13;;;;;;;5.78;5.38;;;;;;;18.20;78.85;100754.88;6052606;23;20029;-79
2022/08/14 03:47:00;;;;;;;5.80;5.50;;;;;;;17.62;79.24;100653.44;6055114;23;20046;-78
2022/08/14 03:49:29;;;;;;;7.15;6.75;;;;;;;17.80;80.29;100691.78;6076138;23;20092;-77
2022/08/14 03:52:12;;;;;;;5.38;5.07;;;;;;;17.62;80.29;100651.66;6001653;23;20015;-76
2022/08/14 03:54:58;;;;;;;5.88;5.57;;;;;;;18.22;79.56;100750.28;6066905;23;20456;-79
2022/08/14 03:57:31;;;;;;;8.25;7.85;;;;;;;17.28;79.85;100596.06;6024117;23;20057;-78
2022/08/14 04:00:15;;;;;;;5.90;5.60;;;;;;;17.55;80.14;100648.66;6057769;23;20031;-78
2022/08/14 04:06:03;;;;;;;5.85;5.57;;;;;;;17.84;80.97;100751.63;6054234;23;20040;-78
2022/08/14 04:08:39;;;;;;;7.80;7.18;;;;;;;15.66;82.87;100457.00;6037055;23;20033;-78
2022/08/14 04:11:09;;;;;;;6.70;6.30;;;;;;;12.88;82.82;100063.28;5995097;23;20100;-78
2022/08/14 04:13:45;;;;;;;7.53;7.13;;;;;;;17.37;83.75;100756.28;6025618;23;20017;-78
2022/08/14 04:16:21;;;;;;;6.38;5.97;;;;;;;16.91;84.99;100701.59;6067780;23;20605;-79
2022/08/14 04:18:55;;;;;;;6.80;6.40;;;;;;;16.99;85.63;100712.44;6028271;23;20023;-78
2022/08/14 04:21:29;;;;;;;6.28;5.97;;;;;;;16.66;86.84;100650.50;6044166;23;20072;-78
2022/08/14 04:24:16;;;;;;;5.75;5.45;;;;;;;16.93;85.84;100689.06;6002246;23;20014;-78
2022/08/14 04:26:45;;;;;;;6.30;5.80;;;;;;;14.74;84.97;100327.44;6054502;23;20015;-79
2022/08/14 04:29:13;;;;;;;6.30;5.80;;;;;;;17.31;85.07;100724.94;6032156;23;20051;-77
2022/08/14 04:31:46;;;;;;;5.30;5.10;;;;;;;17.81;84.34;100735.06;6030560;23;20392;-76
2022/08/14 04:34:40;;;;;;;;;;;;;;;18.13;83.28;100735.94;6039444;23;20014;-76
2022/08/14 04:46:06;;;;;;;5.80;5.50;;;;;;;18.27;79.47;100643.63;6054427;23;20107;-77
2022/08/14 04:48:33;;;;;;;6.60;6.30;;;;;;;17.44;79.73;100508.09;6027214;23;20031;-76
2022/08/14 04:51:12;;;;;;;5.78;5.47;;;;;;;18.63;79.59;100711.38;6064061;23;20026;-77
2022/08/14 04:53:43;;;;;;;5.90;5.60;;;;;;;18.56;79.64;100709.34;6023164;23;20094;-77
2022/08/14 04:56:28;;;;;;;5.75;5.45;;;;;;;18.66;78.47;100715.56;6049452;23;20053;-77
2022/08/14 04:59:03;;;;;;;6.60;6.20;;;;;;;18.99;76.26;100692.38;6043400;23;20345;-75
2022/08/14 05:01:54;;;;;;;6.65;6.25;;;;;;;18.05;73.56;100450.75;6045592;23;20583;-76
2022/08/14 05:04:30;;;;;;;6.60;6.30;;;;;;;18.19;71.54;100340.63;6003188;23;20019;-76
2022/08/14 05:06:56;;;;;;;5.85;5.55;;;;;;;18.35;69.84;100314.34;6063861;23;20034;-77
2022/08/14 05:09:24;;;;;;;7.05;6.72;;;;;;;19.92;68.10;100468.28;6000252;23;20019;-77
2022/08/14 05:12:28;;;;;;;6.80;6.43;;;;;;;19.76;66.78;100389.97;6042373;23;20035;-77
2022/08/14 05:15:22;;;;;;;6.47;6.18;;;;;;;18.60;66.16;100070.25;6023058;23;20030;-76
2022/08/14 05:17:49;;;;;;;6.40;5.97;;;;;;;20.98;64.55;100413.56;6053072;23;20020;-77
2022/08/14 05:20:44;;;;;;;7.00;6.60;;;;;;;19.62;63.33;100096.59;6039615;23;20051;-76
2022/08/14 05:23:33;;;;;;;7.57;7.18;;;;;;;23.20;62.66;100640.97;5990332;23;20465;-78
2022/08/14 05:26:12;;;;;;;6.97;6.35;;;;;;;21.54;62.02;100360.75;6062730;23;20087;-77
2022/08/14 05:28:43;;;;;;;6.65;6.35;;;;;;;21.18;61.91;100275.47;6033008;23;20026;-77
2022/08/14 05:31:13;;;;;;;7.45;6.90;;;;;;;21.75;60.56;100379.03;6053619;23;20104;-75
2022/08/14 05:33:46;;;;;;;6.18;5.80;;;;;;;22.46;60.76;100429.41;5999677;23;20023;-79
2022/08/14 05:36:25;;;;;;;7.45;6.95;;;;;;;22.36;61.44;100406.50;6040828;23;20058;-77
2022/08/14 05:39:01;;;;;;;5.80;5.50;;;;;;;23.97;60.49;100613.91;6031667;23;20719;-77
2022/08/14 05:41:33;;;;;;;7.50;7.10;;;;;;;24.26;59.71;100599.94;6056535;23;20518;-75
2022/08/14 05:44:19;;;;;;;6.57;6.22;;;;;;;23.59;58.52;100391.22;6007746;23;20451;-75
2022/08/14 05:46:46;;;;;;;6.38;6.00;;;;;;;24.91;56.88;100565.00;6067350;23;20032;-76
2022/08/14 05:49:18;;;;;;;6.65;6.25;;;;;;;24.78;57.33;100531.50;6040984;23;20673;-76
2022/08/14 05:51:48;;;;;;;8.25;7.65;;;;;;;24.25;56.23;100389.09;6058465;23;20491;-79
2022/08/14 05:54:18;;;;;;;6.80;6.30;;;;;;;24.77;54.83;100475.31;6024012;23;20022;-75
2022/08/14 05:56:55;;;;;;;7.05;6.55;;;;;;;24.88;53.90;100423.91;5989041;23;20035;-76
2022/08/14 05:59:34;;;;;;;7.88;7.38;;;;;;;24.76;56.30;100512.06;6037933;23;20030;-77
2022/08/14 06:02:23;;;;;;;6.75;6.25;;;;;;;24.84;56.67;100522.75;6014142;23;20031;-77
2022/08/14 06:04:52;;;;;;;10.18;9.57;;;;;;;25.21;57.53;100617.84;6054047;23;20522;-76
2022/08/14 06:07:24;;;;;;;7.85;7.35;;;;;;;24.54;58.36;100539.72;6035276;23;20010;-76
2022/08/14 06:09:54;;;;;;;6.78;6.05;;;;;;;24.24;58.54;100513.47;6027503;23;20057;-77
2022/08/14 06:12:26;;;;;;;8.68;8.18;;;;;;;24.84;58.53;100610.50;5995668;23;20039;-77
2022/08/14 06:15:19;;;;;;;7.32;6.78;;;;;;;20.69;59.66;100052.84;6053919;23;20618;-77
2022/08/14 06:17:58;;;;;;;6.57;6.18;;;;;;;24.20;61.00;100622.09;6015823;23;20081;-77
2022/08/14 06:20:29;;;;;;;;;;;;;;;24.01;61.60;100619.78;5994801;23;20031;-77
2022/08/14 06:23:13;;;;;;;7.53;7.03;;;;;;;21.24;60.92;100179.56;6013514;23;19922;-76
2022/08/14 06:26:03;;;;;;;6.88;6.38;;;;;;;19.79;61.69;99967.16;5981535;23;20025;-77
2022/08/14 06:31:50;;;;;;;8.07;7.57;;;;;;;23.46;62.05;100546.28;6037453;23;20030;-75
2022/08/14 06:34:43;;;;;;;7.68;6.97;;;;;;;23.88;61.85;100562.16;6016218;23;20002;-76
2022/08/14 06:37:40;;;;;;;7.10;6.75;;;;;;;23.57;61.41;100495.03;6060588;23;20021;-75
2022/08/14 06:40:09;;;;;;;6.53;6.22;;;;;;;24.23;61.61;100624.41;6030026;23;20065;-76
2022/08/14 06:42:57;;;;;;;6.60;6.20;;;;;;;24.15;61.73;100605.66;6037506;23;20018;-78
2022/08/14 06:45:35;;;;;;;8.30;7.75;;;;;;;24.25;61.43;100606.31;6036351;23;20097;-76
2022/08/14 06:48:11;;;;;;;7.05;6.65;;;;;;;20.55;60.74;99996.59;6040737;23;20030;-77
2022/08/14 06:50:38;;;;;;;6.80;6.30;;;;;;;24.46;60.95;100595.03;6006664;23;20109;-78
2022/08/14 06:53:09;;;;;;;6.72;6.22;;;;;;;24.39;61.34;100595.88;5993322;23;20031;-76
2022/08/14 06:55:38;;;;;;;7.05;6.65;;;;;;;22.97;61.15;100383.78;6056711;23;20479;-77
2022/08/14 06:58:22;;;;;;;6.78;6.38;;;;;;;22.57;60.59;100273.16;5993924;23;20477;-76
2022/08/14 07:06:56;;;;;;;6.68;6.38;;;;;;;23.17;60.67;100404.88;6052416;23;20435;-76
2022/08/14 07:09:32;;;;;;;9.27;8.82;;;;;;;21.71;59.65;100116.78;6021642;23;20018;-76
2022/08/14 07:12:13;;;;;;;6.80;6.40;;;;;;;23.15;60.53;100289.09;5997370;23;20040;-77
2022/08/14 07:14:59;;;;;;;6.47;6.15;;;;;;;22.26;59.79;100136.66;6051682;23;20022;-76
2022/08/14 07:17:33;;;;;;;7.30;6.90;;;;;;;20.95;59.41;99913.22;6029483;23;20858;-74
2022/08/14 07:20:11;;;;;;;6.60;6.20;;;;;;;23.45;58.63;100290.16;6056546;23;20578;-77
2022/08/14 07:23:07;;;;;;;6.20;5.90;;;;;;;24.68;58.49;100514.81;5978809;23;20081;-76
2022/08/14 07:25:52;;;;;;;6.88;6.47;;;;;;;21.50;58.65;99981.94;6055090;23;20022;-77
2022/08/14 07:28:54;;;;;;;8.73;7.18;;;;;;;23.66;58.40;100294.94;6018745;23;20092;-77
2022/08/14 07:31:28;;;;;;;;;;;;;;;25.39;57.52;100549.56;6002591;23;20035;-76
2022/08/14 07:34:17;;;;;;;10.93;10.32;;;;;;;23.14;57.49;100242.75;6004551;23;19922;-76
2022/08/14 07:37:23;;;;;;;7.57;7.18;;;;;;;24.80;56.74;100442.78;6059721;23;20543;-78
2022/08/14 07:40:05;;;;;;;7.22;6.63;;;;;;;23.92;57.19;100300.00;6003674;23;20079;-76
2022/08/14 07:42:48;;;;;;;7.97;7.47;;;;;;;25.55;57.27;100540.53;6051932;23;20086;-78
2022/08/14 07:45:19;;;;;;;7.35;6.90;;;;;;;23.53;56.37;100228.50;5998012;23;20169;-78
2022/08/14 07:47:50;;;;;;;6.28;5.97;;;;;;;25.80;57.02;100595.75;6059317;23;20318;-77
2022/08/14 07:50:27;;;;;;;6.68;6.35;;;;;;;22.26;56.08;100011.00;6025273;23;20467;-76
2022/08/14 07:53:05;;;;;;;7.63;7.22;;;;;;;23.78;55.30;100190.91;5988485;23;20528;-75
2022/08/14 07:55:35;;;;;;;6.10;5.80;;;;;;;23.02;55.07;100078.22;6071069;23;20011;-78
2022/08/14 07:58:26;;;;;;;8.68;8.10;;;;;;;23.58;56.18;100190.50;6033997;23;20015;-77
2022/08/14 08:01:03;;;;;;;7.50;7.00;;;;;;;24.11;55.42;100223.63;6005024;23;20350;-77
2022/08/14 08:03:48;;;;;;;6.03;5.72;;;;;;;23.24;55.04;100029.22;6023495;23;20037;-77
2022/08/14 08:06:20;;;;;;;6.72;6.22;;;;;;;26.47;53.92;100534.84;6056465;23;20018;-76
2022/08/14 08:08:52;;;;;;;6.85;6.50;;;;;;;23.05;53.70;99992.19;6002050;23;20014;-78
2022/08/14 08:11:31;;;;;;;6.25;5.95;;;;;;;24.24;52.75;100135.38;6065176;23;20014;-76
2022/08/14 08:14:08;;;;;;;7.43;6.82;;;;;;;24.30;52.95;100128.44;6028162;23;20084;-78
2022/08/14 08:16:49;;;;;;;6.00;5.70;;;;;;;23.43;52.57;99974.34;6053015;23;20076;-77
2022/08/14 08:19:36;;;;;;;;;;;;;;;;;;;;;
2022/08/14 08:22:12;;;;;;;10.27;9.73;;;;;;;25.14;52.01;100257.03;6063069;23;20030;-77
2022/08/14 08:24:43;;;;;;;7.20;6.80;;;;;;;25.34;52.09;100281.50;6024863;23;20053;-76
2022/08/14 08:27:19;;;;;;;7.07;6.68;;;;;;;24.98;52.03;100212.41;6043172;23;20046;-77
2022/08/14 08:29:49;;;;;;;7.35;6.95;;;;;;;27.17;51.70;100509.09;6034873;23;20022;-76
2022/08/14 08:32:20;;;;;;;7.05;6.65;;;;;;;26.86;51.55;100459.09;6057996;23;20084;-76
2022/08/14 08:35:16;;;;;;;7.95;7.43;;;;;;;24.81;50.82;100130.41;6041104;23;20037;-78
2022/08/14 08:38:43;;;;;;;7.43;6.95;;;;;;;24.50;50.90;100018.78;5994846;23;20089;-80
2022/08/14 08:41:49;;;;;;;7.65;7.03;;;;;;;24.92;50.65;100121.03;6028308;23;20042;-75
2022/08/14 08:44:48;;;;;;;7.40;7.00;;;;;;;27.75;50.17;100506.25;5983300;23;20053;-75
2022/08/14 08:47:25;;;;;;;7.60;7.20;;;;;;;24.22;49.39;99925.59;5895715;24;20504;-76
2022/08/14 08:50:40;;;;;;;8.98;8.55;;;;;;;24.27;50.25;99927.69;5997674;23;20218;-76
2022/08/14 08:53:19;;;;;;;7.70;7.20;;;;;;;25.23;49.30;100057.19;5990410;23;20586;-75
2022/08/14 08:56:04;;;;;;;6.72;6.32;;;;;;;27.15;47.83;100313.66;6023211;23;20117;-76
2022/08/14 08:58:45;;;;;;;11.32;10.52;;;;;;;24.63;47.79;99905.41;5979334;23;20087;-78
2022/08/14 09:01:15;;;;;;;7.00;6.57;;;;;;;26.57;47.40;100188.16;6040834;23;20019;-76
2022/08/14 09:04:05;;;;;;;6.82;6.28;;;;;;;25.18;46.47;99924.50;5979784;23;20333;-78
2022/08/14 09:06:53;;;;;;;7.40;7.00;;;;;;;25.69;46.58;99972.63;6036112;23;20023;-76
2022/08/14 09:09:55;;;;;;;7.43;7.03;;;;;;;25.57;47.00;99987.63;5957967;23;20019;-77
2022/08/14 09:12:48;;;;;;;11.43;10.73;;;;;;;28.69;46.29;100402.25;5996837;23;20015;-79
2022/08/14 09:15:17;;;;;;;7.22;6.65;;;;;;;28.90;45.41;100425.53;5968144;23;20031;-77
2022/08/14 09:18:00;;;;;;;;;;;;;;;29.28;45.58;100478.16;6010322;23;20084;-76
2022/08/14 09:20:45;;;;;;;;;;;;;;;;;;;;;
2022/08/14 09:23:48;;;;;;;6.50;6.00;;;;;;;29.31;43.57;100464.19;6037092;23;20006;-77
2022/08/14 09:26:44;;;;;;;7.85;7.38;;;;;;;28.35;43.98;100303.34;5967455;23;20550;-78
2022/08/14 09:29:24;;;;;;;6.60;6.20;;;;;;;28.98;43.85;100416.38;6021077;23;20093;-79
2022/08/14 09:32:29;;;;;;;6.72;6.32;;;;;;;28.21;43.73;100232.34;5912101;23;20024;-74
2022/08/14 09:35:53;;;;;;;7.22;6.82;;;;;;;29.46;44.44;100454.00;5961562;23;20019;-76
2022/08/14 09:39:10;;;;;;;6.50;6.10;;;;;;;29.58;43.28;100457.72;6029437;23;20006;-76
2022/08/14 09:42:24;;;;;;;7.50;7.03;;;;;;;27.09;42.59;100034.34;5989532;23;20746;-76
2022/08/14 09:45:09;;;;;;;6.78;6.38;;;;;;;29.77;42.57;100441.72;6001212;23;20019;-77
2022/08/14 09:47:54;;;;;;;7.00;6.60;;;;;;;27.66;42.79;100078.75;5988933;23;20034;-75
2022/08/14 09:50:43;;;;;;;6.63;6.22;;;;;;;29.51;41.97;100399.28;6039395;23;20015;-76
2022/08/14 09:53:10;;;;;;;6.45;6.10;;;;;;;29.67;41.75;100371.78;5967691;23;20024;-75
2022/08/14 09:55:44;;;;;;;7.95;7.45;;;;;;;29.69;41.59;100423.81;6030147;23;20511;-75
2022/08/14 09:58:17;;;;;;;6.90;6.50;;;;;;;29.66;40.67;100397.16;5995380;23;20018;-75
2022/08/14 10:00:52;;;;;;;7.85;7.45;;;;;;;27.81;40.55;100075.88;6016037;23;20042;-76
2022/08/14 10:03:32;;;;;;;6.32;6.03;;;;;;;29.97;36.21;100457.84;6008979;23;20356;-76
2022/08/14 10:06:23;;;;;;;6.70;6.40;;;;;;;29.77;37.76;100393.03;6006624;23;20047;-77
2022/08/14 10:09:05;;;;;;;6.57;6.18;;;;;;;29.43;36.58;100333.59;6003884;23;20203;-76
2022/08/14 10:11:53;;;;;;;7.63;7.03;;;;;;;29.76;36.76;100394.88;6044931;23;20603;-77
2022/08/14 10:14:29;;;;;;;6.53;6.13;;;;;;;30.09;36.79;100429.09;6001935;23;20016;-77
2022/08/14 10:17:03;;;;;;;6.38;6.07;;;;;;;29.81;36.86;100373.44;5979117;23;20020;-75
2022/08/14 10:19:33;;;;;;;6.30;5.90;;;;;;;29.65;38.36;100352.25;6011193;23;20042;-75
2022/08/14 10:22:07;;;;;;;6.82;6.40;;;;;;;30.12;37.43;100407.00;5975093;23;20020;-75
2022/08/14 10:24:55;;;;;;;6.40;6.00;;;;;;;29.96;37.36;100429.97;6023099;23;20034;-76
2022/08/14 10:27:24;;;;;;;6.68;6.28;;;;;;;30.11;36.92;100405.34;6014074;23;20094;-75
2022/08/14 10:30:00;;;;;;;6.50;6.10;;;;;;;30.01;36.40;100386.03;6010386;23;20498;-76
2022/08/14 10:32:27;;;;;;;6.38;5.97;;;;;;;30.08;37.10;100362.47;5998356;23;21115;-77
2022/08/14 10:35:15;;;;;;;6.25;5.85;;;;;;;30.11;36.72;100343.09;6040277;23;20010;-76
2022/08/14 10:37:46;;;;;;;7.95;7.45;;;;;;;30.63;36.49;100375.44;5964897;23;20007;-77
2022/08/14 10:40:25;;;;;;;6.30;6.00;;;;;;;30.41;35.73;100356.03;6008324;23;20050;-78
2022/08/14 10:43:25;;;;;;;6.10;5.70;;;;;;;31.08;36.14;100409.72;5990231;23;20042;-77
2022/08/14 10:45:57;;;;;;;6.22;5.90;;;;;;;30.21;36.12;100231.66;6024921;23;20491;-76
2022/08/14 10:48:30;;;;;;;7.18;6.68;;;;;;;30.91;36.12;100360.66;5985610;23;20011;-76
2022/08/14 10:51:06;;;;;;;6.50;6.10;;;;;;;30.18;32.63;100294.34;6032391;23;20036;-77
2022/08/14 10:53:36;;;;;;;6.75;6.43;;;;;;;31.02;34.53;100392.47;6041327;23;20334;-76
2022/08/14 10:56:08;;;;;;;6.07;5.77;;;;;;;31.22;33.44;100389.56;6061477;23;20694;-75
2022/08/14 10:59:04;;;;;;;6.97;6.38;;;;;;;30.73;33.49;100290.97;6031881;23;20072;-76
2022/08/14 11:01:32;;;;;;;6.18;5.82;;;;;;;30.51;33.79;100290.56;6080516;23;20042;-75
2022/08/14 11:04:19;;;;;;;6.47;6.07;;;;;;;30.50;34.64;100351.19;6034345;23;20033;-76
2022/08/14 11:06:52;;;;;;;7.43;6.93;;;;;;;30.15;34.00;100303.72;6076920;23;20152;-76
2022/08/14 11:09:18;;;;;;;6.28;5.97;;;;;;;30.84;35.14;100358.00;6051782;23;20093;-77
2022/08/14 11:11:53;;;;;;;7.40;7.00;;;;;;;31.49;34.74;100398.28;6029596;23;20038;-77
2022/08/14 11:14:21;;;;;;;6.40;6.10;;;;;;;31.39;34.58;100351.84;6051686;23;20002;-77
2022/08/14 11:16:53;;;;;;;7.35;6.95;;;;;;;31.25;33.57;100329.47;6025245;23;20022;-77
2022/08/14 11:19:22;;;;;;;6.60;6.20;;;;;;;31.67;33.91;100348.59;6058217;23;20079;-77
2022/08/14 11:21:51;;;;;;;7.75;7.28;;;;;;;31.54;33.22;100318.94;6073542;23;20050;-76
2022/08/14 11:24:27;;;;;;;6.75;6.35;;;;;;;31.71;34.12;100374.22;6030660;23;20460;-77
2022/08/14 11:27:17;;;;;;;6.82;6.43;;;;;;;31.43;33.67;100353.03;6076994;23;20025;-75
2022/08/14 11:29:48;;;;;;;7.40;7.00;;;;;;;31.35;33.92;100304.53;6060644;23;20040;-76
2022/08/14 11:32:25;;;;;;;6.53;6.13;;;;;;;31.91;33.62;100360.41;6080701;23;20018;-75
2022/08/14 11:34:52;;;;;;;6.97;6.60;;;;;;;31.11;33.75;100235.78;6047483;23;20018;-77
2022/08/14 11:37:21;;;;;;;6.25;5.95;;;;;;;31.94;33.33;100357.25;6063189;23;20077;-75
2022/08/14 11:40:15;;;;;;;6.40;6.10;;;;;;;31.83;33.97;100346.31;6049104;23;20018;-76
2022/08/14 11:42:46;;;;;;;8.38;7.88;;;;;;;31.71;33.86;100322.66;6082461;23;20018;-77
2022/08/14 11:45:26;;;;;;;5.95;5.65;;;;;;;31.83;33.60;100349.88;6057372;23;20010;-76
2022/08/14 11:47:55;;;;;;;6.28;5.88;;;;;;;31.45;34.04;100321.13;6082966;23;20017;-78
2022/08/14 11:50:42;;;;;;;6.65;6.35;;;;;;;31.99;32.33;100332.97;6034913;23;20026;-76
2022/08/14 11:53:25;;;;;;;6.30;6.00;;;;;;;32.34;31.92;100353.16;6045172;23;20155;-76
2022/08/14 11:56:01;;;;;;;6.80;6.50;;;;;;;32.40;31.73;100306.06;5974674;23;20023;-76
2022/08/14 11:58:34;;;;;;;6.10;5.80;;;;;;;32.67;30.95;100319.22;6021821;23;20018;-75
2022/08/14 12:01:06;;;;;;;6.40;6.07;;;;;;;33.04;31.01;100314.38;5994396;23;20023;-77
2022/08/14 12:03:36;;;;;;;6.15;5.85;;;;;;;33.38;31.64;100318.13;5971069;23;20027;-76
2022/08/14 12:06:19;;;;;;;6.57;6.20;;;;;;;33.34;31.18;100308.78;6020749;23;20026;-77
2022/08/14 12:09:05;;;;;;;6.20;5.90;;;;;;;33.20;30.29;100288.38;5994456;23;20314;-75
2022/08/14 12:11:43;;;;;;;7.15;6.78;;;;;;;32.97;30.53;100319.91;5974702;23;20019;-75
2022/08/14 12:14:14;;;;;;;6.32;5.93;;;;;;;32.67;32.26;100335.53;6001681;23;20023;-75
2022/08/14 12:17:05;;;;;;;6.60;6.20;;;;;;;32.44;32.58;100330.88;5974573;23;22600;-78
2022/08/14 12:19:46;;;;;;;6.60;6.25;;;;;;;32.64;32.09;100315.09;6029864;23;20034;-78
2022/08/14 12:22:18;;;;;;;6.22;5.93;;;;;;;32.44;30.60;100315.38;5975257;23;20081;-77
2022/08/14 12:24:55;;;;;;;6.90;6.50;;;;;;;31.86;31.86;100250.91;6029824;23;20061;-77
2022/08/14 12:27:23;;;;;;;5.82;5.53;;;;;;;31.74;32.43;100303.25;5990175;23;20518;-77
2022/08/14 12:29:52;;;;;;;6.03;5.72;;;;;;;31.77;33.33;100289.22;5982079;23;20073;-77
2022/08/14 12:32:19;;;;;;;6.45;6.05;;;;;;;31.73;32.00;100208.50;6032068;23;20011;-77
2022/08/14 12:34:53;;;;;;;6.85;6.45;;;;;;;32.47;31.62;100265.19;5984102;23;20101;-76
2022/08/14 12:37:28;;;;;;;6.43;6.03;;;;;;;32.71;32.08;100287.78;6027135;23;20029;-76
2022/08/14 12:39:55;;;;;;;6.40;6.00;;;;;;;31.99;31.10;100132.09;5997572;23;20769;-78
2022/08/14 12:42:33;;;;;;;6.10;5.80;;;;;;;32.18;32.37;100237.91;5971926;23;20550;-76
2022/08/14 12:45:10;;;;;;;6.40;6.00;;;;;;;32.44;31.91;100244.75;6029399;23;20080;-77
2022/08/14 12:47:42;;;;;;;7.00;6.60;;;;;;;32.58;31.30;100276.09;5978547;23;20012;-77
2022/08/14 12:50:17;;;;;;;6.53;6.15;;;;;;;31.73;32.07;100157.78;6026347;23;20019;-76
2022/08/14 12:52:46;;;;;;;7.13;6.72;;;;;;;31.65;32.53;100252.22;6005071;23;20074;-76
2022/08/14 12:55:34;;;;;;;6.65;6.05;;;;;;;31.67;33.14;100283.50;6053150;23;20081;-75
2022/08/14 12:58:26;;;;;;;6.53;6.13;;;;;;;31.99;32.68;100237.97;5998896;23;20047;-78
2022/08/14 13:01:21;;;;;;;6.00;5.70;;;;;;;32.13;31.04;100237.75;6054599;23;20535;-76
2022/08/14 13:03:48;;;;;;;6.75;6.45;;;;;;;32.47;31.43;100238.84;6013161;23;20042;-76
2022/08/14 13:06:19;;;;;;;6.05;5.70;;;;;;;32.92;30.20;100260.00;6059173;23;20006;-76
2022/08/14 13:08:45;;;;;;;7.18;6.78;;;;;;;32.71;29.89;100211.69;6000346;23;20086;-77
2022/08/14 13:11:20;;;;;;;6.03;5.72;;;;;;;32.71;29.96;100239.69;6029627;23;20092;-75